Time;durP1;ratioP1;P1;durP2;ratioP2;P2;SDS_P1;SDS_P2;PMS_P1;PMS_P2;Temp;Humidity;BMP_temperature;BMP_pressure;BME280_temperature;BME280_humidity;BME280_pressure;Samples;Min_cycle;Max_cycle;Signal;HPM_P1;HPM_P2
2023/03/19 00:04:30;;;;;;;53.77;32.63;;;3.40;99.90;;;;;;10110344;29;20244;-85
2023/03/19 00:09:33;;;;;;;54.87;33.33;;;3.50;99.90;;;;;;10110488;29;20276;-85
2023/03/19 00:14:38;;;;;;;61.83;34.47;;;3.60;99.90;;;;;;10114170;29;20241;-85
2023/03/19 00:19:41;;;;;;;60.47;33.70;;;3.50;99.90;;;;;;10111511;29;20332;-85
2023/03/19 00:24:43;;;;;;;59.03;34.77;;;3.30;99.90;;;;;;10106637;29;20244;-85
2023/03/19 00:29:46;;;;;;;65.93;35.17;;;3.40;99.90;;;;;;10116934;29;20263;-85
2023/03/19 00:34:50;;;;;;;56.10;32.80;;;3.20;99.90;;;;;;10092573;29;20244;-85
2023/03/19 00:39:53;;;;;;;56.67;33.43;;;3.30;99.90;;;;;;10122531;29;20248;-85
2023/03/19 00:44:55;;;;;;;61.70;35.40;;;3.20;99.90;;;;;;10098216;29;20245;-85
2023/03/19 00:49:59;;;;;;;61.50;34.80;;;3.00;99.90;;;;;;10088511;29;20265;-85
2023/03/19 00:55:01;;;;;;;56.77;33.50;;;2.90;99.90;;;;;;10076398;29;20304;-85
2023/03/19 01:00:05;;;;;;;54.50;31.53;;;3.00;99.90;;;;;;10053174;29;20257;-85
2023/03/19 01:05:08;;;;;;;46.73;30.47;;;3.20;99.90;;;;;;10056080;29;20245;-85
2023/03/19 01:10:11;;;;;;;48.53;29.03;;;3.20;99.90;;;;;;10087170;29;20289;-85
2023/03/19 01:15:14;;;;;;;51.17;31.40;;;3.70;99.90;;;;;;10091832;29;20702;-85
2023/03/19 01:20:17;;;;;;;52.07;32.63;;;4.00;99.90;;;;;;10090532;29;20298;-85
2023/03/19 01:25:20;;;;;;;48.03;31.03;;;4.10;99.90;;;;;;10063482;29;20263;-85
2023/03/19 01:30:35;;;;;;;47.93;31.50;;;3.90;99.90;;;;;;10059488;29;20324;-85
2023/03/19 01:36:07;;;;;;;59.70;33.83;;;3.60;99.90;;;;;;10067802;29;20237;-85
2023/03/19 01:41:22;;;;;;;52.27;31.83;;;3.60;99.90;;;;;;10086779;29;20249;-85
2023/03/19 01:46:30;;;;;;;53.47;33.30;;;3.50;99.90;;;;;;10089977;29;20321;-85
2023/03/19 01:52:03;;;;;;;52.23;31.83;;;3.50;99.90;;;;;;10096773;29;20292;-84
2023/03/19 01:57:15;;;;;;;49.33;29.90;;;3.70;99.90;;;;;;10102004;29;20657;-85
2023/03/19 02:02:42;;;;;;;54.70;30.53;;;3.60;99.90;;;;;;10056873;29;20317;-84
2023/03/19 02:08:01;;;;;;;41.30;25.07;;;3.50;99.90;;;;;;10066918;29;20273;-85
2023/03/19 02:13:03;;;;;;;52.43;31.80;;;3.50;99.90;;;;;;10075415;29;20249;-85
2023/03/19 02:18:07;;;;;;;47.30;30.73;;;3.60;99.90;;;;;;10090696;29;20272;-85
2023/03/19 02:23:33;;;;;;;45.63;28.73;;;3.50;99.90;;;;;;10082273;29;20446;-85
2023/03/19 02:28:46;;;;;;;48.63;30.17;;;3.90;99.90;;;;;;10088639;29;20337;-85
2023/03/19 02:34:20;;;;;;;47.43;28.73;;;3.90;99.90;;;;;;10087177;29;20296;-85
2023/03/19 02:39:31;;;;;;;48.53;29.07;;;3.60;99.90;;;;;;10052444;29;20716;-85
2023/03/19 02:44:33;;;;;;;48.43;30.37;;;3.60;99.90;;;;;;10087893;29;20316;-85
2023/03/19 02:49:36;;;;;;;50.87;31.03;;;3.50;99.90;;;;;;10071410;29;20316;-84
2023/03/19 02:54:38;;;;;;;46.27;28.33;;;3.50;99.90;;;;;;10087671;29;20257;-84
2023/03/19 02:59:41;;;;;;;50.47;30.93;;;3.50;99.90;;;;;;10079216;29;20270;-84
2023/03/19 03:04:45;;;;;;;53.63;33.47;;;3.40;99.90;;;;;;10080054;29;20249;-84
2023/03/19 03:09:47;;;;;;;51.10;31.63;;;3.20;99.90;;;;;;10093560;29;20280;-84
2023/03/19 03:14:50;;;;;;;49.37;30.23;;;3.20;99.90;;;;;;10082631;29;20681;-84
2023/03/19 03:19:53;;;;;;;47.83;29.93;;;3.10;99.90;;;;;;10094533;29;20260;-84
2023/03/19 03:24:55;;;;;;;56.37;32.73;;;3.10;99.90;;;;;;10092563;29;20246;-84
2023/03/19 03:29:58;;;;;;;47.90;29.53;;;3.30;99.90;;;;;;10057768;29;20268;-84
2023/03/19 03:35:00;;;;;;;49.23;29.87;;;3.10;99.90;;;;;;10067288;29;20246;-84
2023/03/19 03:40:07;;;;;;;48.13;30.13;;;3.10;99.90;;;;;;10070449;29;20256;-84
2023/03/19 03:45:11;;;;;;;51.47;31.57;;;3.00;99.90;;;;;;10083838;29;20206;-84
2023/03/19 03:50:16;;;;;;;48.53;31.80;;;3.00;99.90;;;;;;10070421;29;20790;-84
2023/03/19 03:55:19;;;;;;;53.43;30.67;;;3.10;99.90;;;;;;10094834;29;20248;-84
2023/03/19 04:00:22;;;;;;;46.93;28.97;;;3.10;99.90;;;;;;10093049;29;20316;-83
2023/03/19 04:05:25;;;;;;;48.80;30.23;;;3.30;99.90;;;;;;10057584;29;20249;-83
2023/03/19 04:10:28;;;;;;;51.50;32.70;;;3.30;99.90;;;;;;10060665;29;20293;-83
2023/03/19 04:15:31;;;;;;;46.13;28.67;;;3.30;99.90;;;;;;10094176;29;20285;-83
2023/03/19 04:20:35;;;;;;;44.00;27.87;;;3.30;99.90;;;;;;10069441;29;20265;-84
2023/03/19 04:25:40;;;;;;;48.40;29.00;;;3.40;99.90;;;;;;10087003;29;20272;-84
2023/03/19 04:30:43;;;;;;;52.03;28.27;;;3.10;99.90;;;;;;10092676;29;20276;-83
2023/03/19 04:35:47;;;;;;;45.90;29.00;;;3.00;99.90;;;;;;10075690;29;20287;-84
2023/03/19 04:40:50;;;;;;;47.37;28.90;;;2.70;99.90;;;;;;10092731;29;20257;-83
2023/03/19 04:45:53;;;;;;;48.60;27.80;;;2.70;99.90;;;;;;10092180;29;20684;-83
2023/03/19 04:50:57;;;;;;;43.67;29.40;;;2.70;99.90;;;;;;10065015;29;20723;-84
2023/03/19 04:56:01;;;;;;;45.60;28.93;;;2.60;99.90;;;;;;10054146;29;20316;-83
2023/03/19 05:01:05;;;;;;;42.70;28.90;;;2.50;99.90;;;;;;10080389;29;20300;-83
2023/03/19 05:06:30;;;;;;;45.53;27.90;;;2.60;99.90;;;;;;10092560;29;20671;-83
2023/03/19 05:11:33;;;;;;;45.80;28.97;;;2.60;99.90;;;;;;10079194;29;20286;-83
2023/03/19 05:16:42;;;;;;;45.93;28.63;;;2.80;99.90;;;;;;10067146;29;20252;-83
2023/03/19 05:21:45;;;;;;;43.70;28.00;;;2.80;99.90;;;;;;10054210;29;20268;-83
2023/03/19 05:26:51;;;;;;;38.13;25.20;;;2.80;99.90;;;;;;10051624;29;20638;-83
2023/03/19 05:32:11;;;;;;;44.40;27.57;;;2.80;99.90;;;;;;10069767;29;20718;-84
2023/03/19 05:37:15;;;;;;;45.33;28.17;;;3.10;99.90;;;;;;10087271;29;20302;-84
2023/03/19 05:42:22;;;;;;;39.60;25.73;;;3.50;99.90;;;;;;10076461;29;20316;-83
2023/03/19 05:47:26;;;;;;;49.57;29.30;;;4.50;99.90;;;;;;10070959;29;20345;-83
2023/03/19 05:52:31;;;;;;;42.53;26.17;;;4.30;99.90;;;;;;10061365;29;20273;-83
2023/03/19 05:57:35;;;;;;;47.83;30.00;;;4.10;99.90;;;;;;10089351;29;20253;-84
2023/03/19 06:02:57;;;;;;;48.17;28.73;;;4.10;99.90;;;;;;10077183;29;20721;-84
2023/03/19 06:08:18;;;;;;;43.03;27.57;;;3.90;99.90;;;;;;10073662;29;20344;-84
2023/03/19 06:13:56;;;;;;;46.47;29.27;;;4.00;99.90;;;;;;10067430;29;20858;-84
2023/03/19 06:19:00;;;;;;;43.27;29.30;;;4.20;99.90;;;;;;10085927;29;20285;-84
2023/03/19 06:24:03;;;;;;;45.90;29.27;;;4.30;99.90;;;;;;10059609;29;20690;-84
2023/03/19 06:29:09;;;;;;;39.23;25.33;;;4.50;99.90;;;;;;10087844;29;20657;-84
2023/03/19 06:34:14;;;;;;;44.93;25.83;;;4.60;99.90;;;;;;10089085;29;20252;-84
2023/03/19 06:39:19;;;;;;;42.70;27.93;;;4.90;99.90;;;;;;10092409;29;20248;-85
2023/03/19 06:44:21;;;;;;;52.00;30.97;;;5.20;99.90;;;;;;10102776;29;20240;-84
2023/03/19 06:49:24;;;;;;;49.63;31.27;;;5.40;99.90;;;;;;10072044;29;20289;-85
2023/03/19 06:54:27;;;;;;;51.30;33.30;;;5.90;99.90;;;;;;10063682;29;20257;-85
2023/03/19 06:59:29;;;;;;;57.20;30.97;;;6.30;99.90;;;;;;10064047;29;20724;-86
2023/03/19 07:04:32;;;;;;;49.43;31.57;;;6.80;99.90;;;;;;10074397;29;20281;-85
2023/03/19 07:09:34;;;;;;;51.40;31.50;;;7.10;99.90;;;;;;10093978;29;20324;-85
2023/03/19 07:14:37;;;;;;;52.97;32.87;;;7.30;99.90;;;;;;10086318;29;20229;-84
2023/03/19 07:19:40;;;;;;;51.93;32.07;;;7.40;99.90;;;;;;10096247;29;20331;-85
2023/03/19 07:24:42;;;;;;;53.90;32.97;;;7.70;99.90;;;;;;10101342;29;20670;-86
2023/03/19 07:29:45;;;;;;;54.97;33.37;;;8.00;99.90;;;;;;10101076;29;20684;-86
2023/03/19 07:34:48;;;;;;;55.77;35.17;;;8.20;99.90;;;;;;10097026;29;20708;-86
2023/03/19 07:39:51;;;;;;;54.40;34.30;;;8.50;99.90;;;;;;10063197;29;20253;-85
2023/03/19 07:44:54;;;;;;;55.53;35.83;;;8.80;99.90;;;;;;10103951;29;20647;-86
2023/03/19 07:49:57;;;;;;;60.90;36.20;;;9.00;99.20;;;;;;10119482;29;20268;-86
2023/03/19 07:55:00;;;;;;;48.53;32.30;;;9.20;99.90;;;;;;10111375;29;20651;-86
2023/03/19 08:00:03;;;;;;;39.67;25.00;;;9.50;99.80;;;;;;10100459;29;20245;-85
2023/03/19 08:05:15;;;;;;;49.73;30.57;;;9.80;99.20;;;;;;10094525;29;20271;-86
2023/03/19 08:10:18;;;;;;;46.00;29.60;;;10.00;98.30;;;;;;10117536;29;20721;-86
2023/03/19 08:15:21;;;;;;;36.93;24.20;;;10.30;95.70;;;;;;10087123;29;20236;-86
2023/03/19 08:20:23;;;;;;;40.07;27.37;;;10.70;97.70;;;;;;10089484;29;20272;-85
2023/03/19 08:25:26;;;;;;;38.27;25.63;;;11.30;92.70;;;;;;10109429;29;20312;-85
2023/03/19 08:30:29;;;;;;;40.70;25.90;;;11.70;92.00;;;;;;10097411;29;20272;-85
2023/03/19 08:35:31;;;;;;;42.50;27.27;;;12.10;92.80;;;;;;10097948;29;20296;-85
2023/03/19 08:40:34;;;;;;;44.50;26.93;;;12.40;91.80;;;;;;10099612;29;20266;-85
2023/03/19 08:45:37;;;;;;;29.63;20.10;;;12.60;85.20;;;;;;10101136;29;20682;-85
2023/03/19 08:50:40;;;;;;;39.53;24.37;;;12.80;87.50;;;;;;10115136;29;20270;-85
2023/03/19 08:55:43;;;;;;;43.30;26.63;;;12.90;90.00;;;;;;10068017;29;20253;-85
2023/03/19 09:00:46;;;;;;;34.27;20.80;;;13.20;81.80;;;;;;10091466;29;20244;-86
2023/03/19 09:05:48;;;;;;;34.17;22.43;;;13.20;84.30;;;;;;10130997;29;20308;-85
2023/03/19 09:10:51;;;;;;;41.60;24.90;;;13.70;71.30;;;;;;10119254;29;20269;-85
2023/03/19 09:15:54;;;;;;;36.60;23.83;;;13.90;60.00;;;;;;10083257;29;20761;-85
2023/03/19 09:20:56;;;;;;;39.80;23.63;;;14.10;60.30;;;;;;10084482;29;20743;-85
2023/03/19 09:25:59;;;;;;;44.80;25.77;;;14.20;55.10;;;;;;10088756;29;20244;-85
2023/03/19 09:31:05;;;;;;;32.97;19.67;;;14.30;56.00;;;;;;10085408;29;20297;-85
2023/03/19 09:36:09;;;;;;;34.23;20.90;;;;;;;;;;10088899;29;20269;-85
2023/03/19 09:41:34;;;;;;;31.63;20.40;;;15.20;50.40;;;;;;10090688;29;20253;-85
2023/03/19 09:46:43;;;;;;;32.33;21.33;;;15.20;50.40;;;;;;10086555;29;20313;-85
2023/03/19 09:51:53;;;;;;;34.50;21.77;;;15.20;52.50;;;;;;10090307;29;20340;-85
2023/03/19 09:56:56;;;;;;;34.57;21.03;;;15.40;51.40;;;;;;10060242;29;20298;-85
2023/03/19 10:02:13;;;;;;;30.17;20.43;;;15.50;47.00;;;;;;10074007;29;20241;-85
2023/03/19 10:07:31;;;;;;;35.00;22.00;;;15.80;46.10;;;;;;10080147;29;21023;-84
2023/03/19 10:12:48;;;;;;;39.57;24.70;;;15.80;44.40;;;;;;10089962;29;20267;-82
2023/03/19 10:18:13;;;;;;;29.13;18.57;;;15.40;42.40;;;;;;10064198;29;20352;-83
2023/03/19 10:23:31;;;;;;;26.83;17.87;;;15.40;42.90;;;;;;10075667;29;20249;-83
2023/03/19 10:28:35;;;;;;;37.00;24.27;;;15.70;44.50;;;;;;10089660;29;20399;-83
2023/03/19 10:34:16;;;;;;;40.97;25.27;;;15.90;44.80;;;;;;10078429;29;20241;-83
2023/03/19 10:39:18;;;;;;;36.50;22.27;;;15.60;46.40;;;;;;10054790;29;20257;-85
2023/03/19 10:44:27;;;;;;;36.73;19.17;;;15.60;41.30;;;;;;10088270;29;20820;-84
2023/03/19 10:49:35;;;;;;;26.23;13.80;;;15.60;41.60;;;;;;10080471;29;20289;-88
2023/03/19 10:54:39;;;;;;;29.40;18.30;;;15.50;63.20;;;;;;10074411;29;20279;-87
2023/03/19 10:59:46;;;;;;;47.67;16.27;;;15.80;53.50;;;;;;10051199;29;20253;-87
2023/03/19 11:05:20;;;;;;;25.03;16.13;;;16.10;40.50;;;;;;10053855;29;20330;-87
2023/03/19 11:10:26;;;;;;;21.80;13.87;;;16.10;32.20;;;;;;10054227;29;20273;-89
2023/03/19 11:15:35;;;;;;;24.80;14.40;;;16.10;31.20;;;;;;10079287;29;20245;-89
2023/03/19 11:20:38;;;;;;;29.47;14.53;;;16.10;29.50;;;;;;10059448;29;20309;-88
2023/03/19 11:25:52;;;;;;;22.87;14.87;;;16.00;30.40;;;;;;10053032;29;20647;-89
2023/03/19 11:31:00;;;;;;;29.80;18.20;;;15.90;30.10;;;;;;10058342;29;20322;-89
2023/03/19 11:36:35;;;;;;;23.70;14.20;;;15.60;29.80;;;;;;10069279;29;20309;-89
2023/03/19 11:41:59;;;;;;;33.63;19.73;;;15.50;29.60;;;;;;9975956;29;20334;-89
2023/03/19 11:47:23;;;;;;;23.97;15.00;;;15.40;29.30;;;;;;9986124;29;20865;-88
2023/03/19 11:53:05;;;;;;;32.50;20.20;;;15.30;32.10;;;;;;9975856;29;20318;-88
2023/03/19 11:58:16;;;;;;;33.27;19.83;;;15.30;31.90;;;;;;9830112;30;20443;-88
2023/03/19 12:03:32;;;;;;;31.23;19.67;;;15.30;33.00;;;;;;9864677;30;20245;-88
2023/03/19 12:09:21;;;;;;;33.67;20.80;;;15.20;32.10;;;;;;9854202;30;20269;-86
2023/03/19 12:14:33;;;;;;;30.73;18.80;;;14.90;32.90;;;;;;9845516;30;20252;-87
2023/03/19 12:20:00;;;;;;;30.90;19.27;;;14.70;32.00;;;;;;9942112;29;20336;-87
2023/03/19 12:25:23;;;;;;;34.97;20.13;;;14.90;35.20;;;;;;9971794;29;20344;-87
2023/03/19 12:30:40;;;;;;;36.23;20.47;;;14.80;33.30;;;;;;9977891;29;21172;-87
2023/03/19 12:35:48;;;;;;;34.20;19.67;;;14.80;33.10;;;;;;10087398;29;20240;-87
2023/03/19 12:40:55;;;;;;;32.03;19.27;;;14.80;33.30;;;;;;10063823;29;20716;-87
2023/03/19 12:46:28;;;;;;;32.50;18.80;;;14.80;34.00;;;;;;10063379;29;20280;-87
2023/03/19 12:51:35;;;;;;;28.83;19.77;;;15.10;40.90;;;;;;10055551;29;20265;-87
2023/03/19 12:56:41;;;;;;;31.40;18.70;;;15.20;42.00;;;;;;10055403;29;20298;-87
2023/03/19 13:01:50;;;;;;;16.67;10.67;;;15.30;41.40;;;;;;10067658;29;20248;-86
2023/03/19 13:07:23;;;;;;;35.47;20.60;;;15.50;55.90;;;;;;10092296;29;20308;-87
2023/03/19 13:12:29;;;;;;;30.23;17.40;;;15.50;41.10;;;;;;10095694;29;20276;-87
2023/03/19 13:17:54;;;;;;;35.90;21.37;;;15.30;43.10;;;;;;10090799;29;20260;-87
2023/03/19 13:23:01;;;;;;;39.80;22.43;;;15.10;36.50;;;;;;10092283;29;20209;-87
2023/03/19 13:28:17;;;;;;;34.10;20.50;;;15.00;34.90;;;;;;10082373;29;20221;-87
2023/03/19 13:33:21;;;;;;;43.40;23.37;;;15.10;35.80;;;;;;10100594;29;20259;-87
2023/03/19 13:38:44;;;;;;;19.43;12.03;;;15.30;35.50;;;;;;10106094;29;20244;-87
2023/03/19 13:43:56;;;;;;;31.83;18.27;;;15.60;49.20;;;;;;10099610;29;20273;-87
2023/03/19 13:49:24;;;;;;;19.00;11.07;;;15.60;44.10;;;;;;10086184;29;20371;-87
2023/03/19 13:54:42;;;;;;;36.43;21.30;;;15.90;52.00;;;;;;10112323;29;20244;-87
2023/03/19 13:59:47;;;;;;;28.40;16.20;;;15.80;38.80;;;;;;10099339;29;20312;-87
2023/03/19 14:05:05;;;;;;;22.13;12.23;;;15.70;43.40;;;;;;10062690;29;20348;-87
2023/03/19 14:10:20;;;;;;;29.67;19.60;;;15.90;51.20;;;;;;10051503;29;20328;-87
2023/03/19 14:15:26;;;;;;;28.03;18.03;;;15.90;44.10;;;;;;10052291;29;20696;-87
2023/03/19 14:20:42;;;;;;;22.90;13.50;;;15.70;44.10;;;;;;10088624;29;20301;-87
2023/03/19 14:26:11;;;;;;;25.17;14.90;;;15.60;47.30;;;;;;10063810;29;20703;-87
2023/03/19 14:31:23;;;;;;;35.00;21.60;;;15.70;53.30;;;;;;10052240;29;20276;-87
2023/03/19 14:36:27;;;;;;;33.60;20.93;;;15.50;42.80;;;;;;10089852;29;20240;-87
2023/03/19 14:41:34;;;;;;;22.70;13.20;;;15.10;42.90;;;;;;10074530;29;20719;-87
2023/03/19 14:46:39;;;;;;;16.13;11.60;;;14.90;57.00;;;;;;10085260;29;20304;-87
2023/03/19 14:51:47;;;;;;;26.40;16.87;;;14.80;58.40;;;;;;10080963;29;20268;-87
2023/03/19 14:56:50;;;;;;;24.17;16.43;;;15.00;51.20;;;;;;10062895;29;20249;-87
2023/03/19 15:01:53;;;;;;;23.17;15.77;;;14.80;52.80;;;;;;10089613;29;20244;-87
2023/03/19 15:06:59;;;;;;;20.37;12.87;;;14.70;53.80;;;;;;10090480;29;20317;-88
2023/03/19 15:12:33;;;;;;;22.13;11.37;;;14.70;58.40;;;;;;10061938;29;20260;-87
2023/03/19 15:17:36;;;;;;;21.80;12.80;;;14.70;63.70;;;;;;10071458;29;20260;-87
2023/03/19 15:22:40;;;;;;;18.57;12.90;;;14.60;68.30;;;;;;10073376;29;20314;-87
2023/03/19 15:27:42;;;;;;;33.50;20.50;;;14.70;67.20;;;;;;10084093;29;20257;-87
2023/03/19 15:32:46;;;;;;;34.87;19.83;;;14.50;65.40;;;;;;10057821;29;20273;-87
2023/03/19 15:38:10;;;;;;;21.07;13.57;;;14.30;64.70;;;;;;9721707;29;10000557;-87
2023/03/19 15:43:13;;;;;;;32.53;18.30;;;14.30;69.90;;;;;;10057996;29;20490;-87
2023/03/19 15:48:33;;;;;;;29.93;17.67;;;14.20;68.20;;;;;;10093205;29;20308;-87
2023/03/19 15:53:37;;;;;;;29.03;19.70;;;13.90;72.20;;;;;;10088207;29;20276;-87
2023/03/19 15:58:45;;;;;;;30.80;20.50;;;13.70;73.60;;;;;;10091413;29;20658;-87
2023/03/19 16:03:58;;;;;;;30.07;19.37;;;13.50;75.30;;;;;;10071059;29;20244;-87
2023/03/19 16:09:12;;;;;;;29.70;20.10;;;13.30;82.10;;;;;;10090777;29;20315;-87
2023/03/19 16:14:28;;;;;;;36.93;23.70;;;13.20;85.00;;;;;;10091427;29;20248;-87
2023/03/19 16:19:37;;;;;;;39.20;22.57;;;13.00;84.00;;;;;;10087640;29;20745;-87
2023/03/19 16:24:42;;;;;;;35.87;22.70;;;12.80;89.30;;;;;;10075019;29;20646;-87
2023/03/19 16:29:55;;;;;;;34.73;21.83;;;12.60;90.60;;;;;;10091137;29;20323;-87
2023/03/19 16:35:13;;;;;;;34.30;20.73;;;12.50;91.90;;;;;;10079209;29;20300;-87
2023/03/19 16:40:19;;;;;;;37.43;21.80;;;12.30;93.00;;;;;;10092753;29;20710;-87
2023/03/19 16:45:26;;;;;;;29.77;19.00;;;12.00;95.60;;;;;;10100588;29;20645;-88
2023/03/19 16:50:35;;;;;;;35.43;21.27;;;11.80;95.30;;;;;;10077619;29;20782;-87
2023/03/19 16:55:38;;;;;;;40.17;22.33;;;11.40;97.80;;;;;;10073036;29;20707;-86
2023/03/19 17:00:42;;;;;;;34.63;22.57;;;11.10;99.90;;;;;;10054700;29;20708;-87
2023/03/19 17:05:46;;;;;;;33.37;21.33;;;10.80;99.90;;;;;;10058193;29;20241;-87
2023/03/19 17:10:52;;;;;;;36.13;23.30;;;10.50;99.90;;;;;;10057851;29;20301;-87
2023/03/19 17:16:04;;;;;;;34.57;22.13;;;10.20;99.90;;;;;;10052963;29;20237;-87
2023/03/19 17:21:20;;;;;;;30.43;20.13;;;10.00;99.90;;;;;;10082191;29;20264;-87
2023/03/19 17:26:25;;;;;;;33.30;19.33;;;9.90;99.90;;;;;;10077355;29;20391;-87
2023/03/19 17:31:29;;;;;;;52.30;24.30;;;9.70;99.90;;;;;;10070181;29;20304;-87
2023/03/19 17:36:32;;;;;;;37.73;22.67;;;9.50;99.90;;;;;;10085753;29;20270;-88
2023/03/19 17:41:34;;;;;;;34.57;21.23;;;9.30;99.90;;;;;;10089489;29;20256;-87
2023/03/19 17:46:40;;;;;;;76.33;31.87;;;9.10;99.90;;;;;;10090962;29;20340;-87
2023/03/19 17:51:42;;;;;;;52.40;28.57;;;8.90;99.90;;;;;;10089912;29;20730;-87
2023/03/19 17:56:45;;;;;;;54.83;28.70;;;8.50;99.90;;;;;;10073835;29;20241;-87
2023/03/19 18:01:48;;;;;;;56.47;29.13;;;8.20;99.90;;;;;;10090571;29;20690;-87
2023/03/19 18:06:55;;;;;;;46.47;25.17;;;8.10;99.90;;;;;;10063507;29;20270;-87
2023/03/19 18:11:57;;;;;;;47.73;25.37;;;8.00;99.90;;;;;;10080702;29;20257;-87
2023/03/19 18:17:00;;;;;;;32.30;21.33;;;7.80;99.90;;;;;;10084068;29;20288;-87
2023/03/19 18:22:14;;;;;;;50.73;27.73;;;7.60;99.90;;;;;;10095483;29;20259;-87
2023/03/19 18:27:17;;;;;;;57.53;33.30;;;7.70;99.90;;;;;;10060007;29;20253;-86
2023/03/19 18:32:30;;;;;;;56.20;33.70;;;7.90;99.90;;;;;;10069539;29;20269;-87
2023/03/19 18:37:33;;;;;;;59.60;35.03;;;8.10;99.90;;;;;;10084984;29;20713;-87
2023/03/19 18:42:36;;;;;;;58.37;33.43;;;8.10;99.90;;;;;;10057017;29;20253;-87
2023/03/19 18:47:43;;;;;;;71.87;37.07;;;8.00;99.90;;;;;;10057282;29;20707;-87
2023/03/19 18:52:47;;;;;;;79.03;46.87;;;7.80;99.90;;;;;;10068183;29;20261;-87
2023/03/19 18:57:54;;;;;;;91.70;52.13;;;6.70;99.90;;;;;;10069818;29;20264;-86
2023/03/19 19:02:57;;;;;;;101.10;53.80;;;;;;;;;;10087338;29;20245;-85
2023/03/19 19:08:01;;;;;;;100.33;53.47;;;5.80;99.90;;;;;;10076283;29;20261;-85
2023/03/19 19:13:12;;;;;;;106.97;56.17;;;5.60;99.90;;;;;;10063805;29;20269;-84
2023/03/19 21:49:36;;;;;;;75.87;52.07;;;7.20;99.90;;;;;;10431784;27;1455371;-83
2023/03/19 21:54:40;;;;;;;85.82;55.70;;;4.80;99.90;;;;;;10417776;28;20943;-79
2023/03/19 21:59:47;;;;;;;86.67;52.83;;;4.50;99.90;;;;;;10403365;28;20227;-79
2023/03/19 22:04:50;;;;;;;81.43;51.63;;;4.30;99.90;;;;;;10423783;28;21401;-79
2023/03/19 22:09:52;;;;;;;78.13;53.65;;;4.10;99.90;;;;;;10440967;28;20460;-82
2023/03/19 22:14:55;;;;;;;76.53;46.23;;;4.00;99.90;;;;;;10442724;28;20227;-82
2023/03/19 22:19:57;;;;;;;77.87;53.80;;;4.00;99.90;;;;;;10414761;28;20446;-81
2023/03/19 22:25:00;;;;;;;74.33;48.07;;;4.00;99.90;;;;;;10426382;28;20502;-80
2023/03/19 22:30:03;;;;;;;45.40;22.63;;;4.00;99.90;;;;;;10425156;28;20270;-82
2023/03/19 22:35:17;;;;;;;57.60;31.53;;;4.00;99.90;;;;;;10413682;28;21029;-79
2023/03/19 22:40:20;;;;;;;69.03;40.43;;;4.40;99.90;;;;;;10434349;28;20665;-80
2023/03/19 22:45:29;;;;;;;59.90;35.27;;;4.30;99.90;;;;;;10440223;28;20261;-80
2023/03/19 22:50:32;;;;;;;45.03;28.43;;;4.10;99.90;;;;;;10456563;28;20291;-82
2023/03/19 22:55:35;;;;;;;49.30;29.90;;;4.20;99.90;;;;;;10480501;28;20280;-82
2023/03/19 23:00:38;;;;;;;57.60;33.27;;;4.20;99.90;;;;;;10457292;28;20748;-84
2023/03/19 23:05:44;;;;;;;61.80;35.30;;;4.30;99.90;;;;;;10435794;28;20254;-83
2023/03/19 23:10:46;;;;;;;61.50;37.53;;;4.20;99.90;;;;;;10454586;28;20676;-83
2023/03/19 23:15:55;;;;;;;45.77;29.30;;;4.00;99.90;;;;;;10436500;28;20244;-82
2023/03/19 23:20:59;;;;;;;57.23;38.50;;;4.10;99.90;;;;;;10399626;28;20224;-82
2023/03/19 23:26:01;;;;;;;76.63;43.67;;;4.20;99.90;;;;;;10403478;28;20259;-83
2023/03/19 23:31:05;;;;;;;63.27;39.03;;;4.10;99.90;;;;;;10422808;28;20230;-83
2023/03/19 23:36:08;;;;;;;38.40;25.53;;;4.10;99.90;;;;;;10413279;28;20240;-82
2023/03/19 23:41:22;;;;;;;65.97;39.43;;;4.10;99.90;;;;;;10412570;28;20286;-82
2023/03/19 23:46:26;;;;;;;61.63;34.00;;;4.00;99.90;;;;;;10435039;28;20263;-82
2023/03/19 23:51:28;;;;;;;61.50;37.50;;;3.80;99.90;;;;;;10429378;28;20219;-82
2023/03/19 23:56:31;;;;;;;55.50;34.03;;;3.50;99.90;;;;;;10451062;28;20235;-81
